createdAt,value
2022-07-28T19:56:18.493Z,3.05
2022-07-28T19:57:20.766Z,2.55
2022-07-28T19:58:23.592Z,2.65
2022-07-28T19:59:25.699Z,2.67
2022-07-28T20:00:27.985Z,2.80
2022-07-28T20:01:31.540Z,2.70
2022-07-28T20:02:33.782Z,3.13
2022-07-28T20:04:01.759Z,2.80
2022-07-28T20:04:57.990Z,2.70
2022-07-28T20:06:00.417Z,2.70
2022-07-28T20:07:02.800Z,2.50
2022-07-28T20:08:05.988Z,2.78
2022-07-28T20:09:08.286Z,3.03
2022-07-28T20:10:10.644Z,2.85
2022-07-28T20:11:13.918Z,2.60
2022-07-28T20:12:16.029Z,2.90
2022-07-28T20:13:18.082Z,2.58
2022-07-28T20:14:20.111Z,2.63
2022-07-28T20:15:22.807Z,2.53
2022-07-28T20:16:25.093Z,2.95
2022-07-28T20:17:38.141Z,3.00
2022-07-28T20:18:44.366Z,2.65
2022-07-28T20:19:46.495Z,2.92
2022-07-28T20:20:49.102Z,2.50
2022-07-28T20:21:51.242Z,2.55
2022-07-28T20:22:53.523Z,2.50
2022-07-28T20:23:57.424Z,2.90
2022-07-28T20:24:59.512Z,2.60
2022-07-28T20:26:01.572Z,2.85
2022-07-28T20:27:08.205Z,3.17
2022-07-28T20:28:11.219Z,2.47
2022-07-28T20:29:13.350Z,2.17
2022-07-28T20:30:22.936Z,2.13
2022-07-28T20:31:25.083Z,2.13
2022-07-28T20:32:27.368Z,2.65
2022-07-28T20:33:30.370Z,2.35
2022-07-28T20:34:32.511Z,2.33
2022-07-28T20:35:34.695Z,1.92
2022-07-28T20:36:36.728Z,2.40
2022-07-28T20:37:39.074Z,3.50
2022-07-28T20:38:41.197Z,5.20
2022-07-28T20:39:45.336Z,2.42
2022-07-28T20:40:47.875Z,2.20
2022-07-28T20:41:50.135Z,2.10
2022-07-28T20:42:54.147Z,2.10
2022-07-28T20:44:18.760Z,1.98
2022-07-28T20:45:18.663Z,1.90
2022-07-28T20:46:24.874Z,1.85
2022-07-28T20:47:28.195Z,2.13
2022-07-28T20:48:30.445Z,2.03
2022-07-28T20:49:33.240Z,2.20
2022-07-28T20:50:35.563Z,2.30
2022-07-28T20:51:37.829Z,2.33
2022-07-28T20:52:39.842Z,2.13
2022-07-28T20:53:41.961Z,2.25
2022-07-28T20:54:44.015Z,2.60
2022-07-28T20:55:46.112Z,2.15
2022-07-28T20:56:48.433Z,2.03
2022-07-28T20:57:53.955Z,2.10
2022-07-28T20:58:56.335Z,2.00
2022-07-28T20:59:58.404Z,1.95
2022-07-28T21:01:03.248Z,1.80
2022-07-28T21:02:05.495Z,1.98
2022-07-28T21:03:08.049Z,1.90
2022-07-28T21:04:11.349Z,1.83
2022-07-28T21:05:23.902Z,2.10
2022-07-28T21:06:35.707Z,2.20
2022-07-28T21:08:00.061Z,2.03
2022-07-28T21:09:02.917Z,2.00
2022-07-28T21:10:06.253Z,2.30
2022-07-28T21:11:08.399Z,2.13
2022-07-28T21:12:10.625Z,2.05
2022-07-28T21:13:12.799Z,1.85
2022-07-28T21:14:15.014Z,2.22
2022-07-28T21:15:17.292Z,2.75
2022-07-28T21:16:19.544Z,2.40
2022-07-28T21:17:21.666Z,2.60
2022-07-28T21:18:24.289Z,2.50
2022-07-28T21:19:26.438Z,2.70
2022-07-28T21:20:28.619Z,2.38
2022-07-28T21:21:30.702Z,2.17
2022-07-28T21:22:32.925Z,2.00
2022-07-28T21:23:35.027Z,1.80
2022-07-28T21:24:37.218Z,2.17
2022-07-28T21:25:39.350Z,2.05
2022-07-28T21:26:42.903Z,2.10
2022-07-28T21:28:03.668Z,2.00
2022-07-28T21:29:12.338Z,2.05
2022-07-28T21:31:17.827Z,2.30
2022-07-28T21:32:19.898Z,2.00
2022-07-28T21:33:23.378Z,2.67
2022-07-28T21:34:25.961Z,2.45
2022-07-28T21:35:28.151Z,2.10
2022-07-28T21:36:30.418Z,2.22
2022-07-28T21:37:32.542Z,2.22
2022-07-28T21:38:34.846Z,2.40
2022-07-28T21:39:36.973Z,1.85
2022-07-28T21:40:39.180Z,1.98
2022-07-28T21:41:41.354Z,2.30
2022-07-28T21:42:47.117Z,1.90
2022-07-28T21:43:49.215Z,2.30
2022-07-28T21:44:54.233Z,1.95
2022-07-28T21:45:58.699Z,1.75
2022-07-28T21:47:00.750Z,2.22
2022-07-28T21:48:02.882Z,1.83
2022-07-28T21:49:06.175Z,1.98
2022-07-28T21:50:09.135Z,1.80
2022-07-28T21:51:19.099Z,2.28
2022-07-28T21:52:23.630Z,1.80
2022-07-28T21:53:26.217Z,1.83
2022-07-28T21:54:28.356Z,2.20
2022-07-28T21:55:30.774Z,2.45
2022-07-28T21:56:34.707Z,2.20
2022-07-28T21:57:37.501Z,2.20
2022-07-28T21:58:43.041Z,1.70
2022-07-28T21:59:45.528Z,1.90
2022-07-28T22:00:50.967Z,1.80
2022-07-28T22:01:53.117Z,1.95
2022-07-28T22:02:55.409Z,2.25
2022-07-28T22:03:57.724Z,2.15
2022-07-28T22:05:00.003Z,2.13
2022-07-28T22:06:04.958Z,2.05
2022-07-28T22:07:09.271Z,2.10
2022-07-28T22:08:11.428Z,2.17
2022-07-28T22:09:16.566Z,2.10
2022-07-28T22:10:18.989Z,2.45
2022-07-28T22:11:23.014Z,2.00
2022-07-28T22:12:25.458Z,2.00
2022-07-28T22:13:28.271Z,2.10
2022-07-28T22:14:32.522Z,1.90
2022-07-28T22:15:34.716Z,1.95
2022-07-28T22:16:37.033Z,2.00
2022-07-28T22:17:39.204Z,1.60
2022-07-28T22:18:45.852Z,1.80
2022-07-28T22:19:48.085Z,1.83
2022-07-28T22:20:50.441Z,2.00
2022-07-28T22:21:54.153Z,1.95
2022-07-28T22:22:56.641Z,1.58
2022-07-28T22:23:58.711Z,1.80
2022-07-28T22:25:00.994Z,1.77
2022-07-28T22:26:03.537Z,1.52
2022-07-28T22:27:05.815Z,1.95
2022-07-28T22:28:08.665Z,1.80
2022-07-28T22:29:11.257Z,1.90
2022-07-28T22:30:13.584Z,1.95
2022-07-28T22:31:16.303Z,1.92
2022-07-28T22:32:28.129Z,1.60
2022-07-28T22:33:31.243Z,1.40
2022-07-28T22:34:34.107Z,1.52
2022-07-28T22:35:36.276Z,1.80
2022-07-28T22:36:39.095Z,1.60
2022-07-28T22:37:41.403Z,1.98
2022-07-28T22:38:43.507Z,1.55
2022-07-28T22:39:45.648Z,2.10
2022-07-28T22:40:47.865Z,2.05
2022-07-28T22:41:52.579Z,1.88
2022-07-28T22:42:56.893Z,1.60
2022-07-28T22:43:58.946Z,1.92
2022-07-28T22:45:05.645Z,1.77
2022-07-28T22:46:10.417Z,1.92
2022-07-28T22:47:12.540Z,1.98
2022-07-28T22:48:14.589Z,1.77
2022-07-28T22:49:16.885Z,2.05
2022-07-28T22:50:19.323Z,2.17
2022-07-28T22:51:21.830Z,2.30
2022-07-28T22:52:30.245Z,2.20
2022-07-28T22:53:32.309Z,3.03
2022-07-28T22:54:38.534Z,2.35
2022-07-28T22:55:41.511Z,2.30
2022-07-28T22:56:44.942Z,2.10
2022-07-28T22:57:47.520Z,2.00
2022-07-28T22:58:50.326Z,1.90
2022-07-28T22:59:54.040Z,2.03
2022-07-28T23:00:56.780Z,2.00
2022-07-28T23:02:01.476Z,2.45
2022-07-28T23:03:05.851Z,1.80
2022-07-28T23:04:09.695Z,2.03
2022-07-28T23:05:12.371Z,2.17
2022-07-28T23:06:15.036Z,2.00
2022-07-28T23:07:17.659Z,1.98
2022-07-28T23:08:20.923Z,2.10
2022-07-28T23:09:23.406Z,2.15
2022-07-28T23:10:26.082Z,1.90
2022-07-28T23:11:28.831Z,1.90
2022-07-28T23:12:31.369Z,2.00
2022-07-28T23:13:33.945Z,1.90
2022-07-28T23:14:36.716Z,1.80
2022-07-28T23:15:41.492Z,1.83
2022-07-28T23:16:44.478Z,2.10
2022-07-28T23:17:47.697Z,1.83
2022-07-28T23:18:50.476Z,2.20
2022-07-28T23:19:58.376Z,2.20
2022-07-28T23:21:00.874Z,2.20
2022-07-28T23:22:03.607Z,2.10
2022-07-28T23:23:06.773Z,1.83
2022-07-28T23:24:09.421Z,2.25
2022-07-28T23:25:12.254Z,2.13
2022-07-28T23:26:14.868Z,2.20
2022-07-28T23:27:17.420Z,2.22
2022-07-28T23:28:20.011Z,2.20
2022-07-28T23:29:22.928Z,2.03
2022-07-28T23:30:25.648Z,1.95
2022-07-28T23:31:28.434Z,1.90
2022-07-28T23:32:31.131Z,2.08
2022-07-28T23:33:55.917Z,2.10
2022-07-28T23:35:06.157Z,2.15
2022-07-28T23:36:14.770Z,1.90
2022-07-28T23:37:29.479Z,1.75
2022-07-28T23:38:32.127Z,2.05
2022-07-28T23:39:34.865Z,2.10
2022-07-28T23:40:37.485Z,2.15
2022-07-28T23:41:40.415Z,2.03
2022-07-28T23:42:42.962Z,1.90
2022-07-28T23:43:45.510Z,2.20
2022-07-28T23:44:48.074Z,1.95
2022-07-28T23:45:50.558Z,2.22
2022-07-28T23:46:54.046Z,2.17
2022-07-28T23:47:58.828Z,2.15
2022-07-28T23:49:01.830Z,1.90
2022-07-28T23:50:05.738Z,1.85
2022-07-28T23:51:08.619Z,2.00
2022-07-28T23:52:11.237Z,2.17
2022-07-28T23:53:13.784Z,2.00
2022-07-28T23:54:17.180Z,2.17
2022-07-28T23:55:20.200Z,2.30
2022-07-28T23:56:22.707Z,1.92
2022-07-28T23:57:25.249Z,2.10
2022-07-28T23:58:34.448Z,1.92
2022-07-28T23:59:37.005Z,2.03
